Kingstown, North Carolina
Current Conditions -  °F | °C
As of 8:35 AM on Saturday 20 Dec 2014 (Local Time) from KEHO Reporting Station
Overcast Overcast  
Wind Chill: 34°   Ceiling: 3800
Heat Index: 38°   Visibility: 10mi
Dew Point: 35°   Wind: 6mph
Humidity: 88%   Direction: 30°NNE
Pressure: 30.24"   Gusts: NA
Location:  35.3693°N, 81.5992°W
Report Text: KEHO 201335Z AUTO 03005KT 10SM BKN038 BKN065 OVC070 04/02 A3024 RMK AO2 T00350017
Loading
Personal Weather Stations






























Interactive Weather Map New forecast layout! Learn more

10-Day Weather Forecast

Advertisements
Track Severe Weather on mobile